sensor_id;sensor_type;location;lat;lon;timestamp;P1;durP1;ratioP1;P2;durP2;ratioP2
20287;SDS011;10303;51.960;8.372;2023-07-22T00:01:12;2.67;;;2.47;;
20287;SDS011;10303;51.960;8.372;2023-07-22T00:03:38;2.90;;;2.53;;
20287;SDS011;10303;51.960;8.372;2023-07-22T00:08:32;3.07;;;2.77;;
20287;SDS011;10303;51.960;8.372;2023-07-22T00:10:59;5.27;;;3.27;;
20287;SDS011;10303;51.960;8.372;2023-07-22T00:13:25;3.50;;;2.87;;
20287;SDS011;10303;51.960;8.372;2023-07-22T00:15:55;4.23;;;2.60;;
20287;SDS011;10303;51.960;8.372;2023-07-22T00:18:24;2.40;;;2.20;;
20287;SDS011;10303;51.960;8.372;2023-07-22T00:20:52;3.23;;;2.93;;
20287;SDS011;10303;51.960;8.372;2023-07-22T00:23:22;3.10;;;2.80;;
20287;SDS011;10303;51.960;8.372;2023-07-22T00:25:48;4.27;;;2.87;;
20287;SDS011;10303;51.960;8.372;2023-07-22T00:28:14;3.33;;;2.87;;
20287;SDS011;10303;51.960;8.372;2023-07-22T00:30:41;3.10;;;2.43;;
20287;SDS011;10303;51.960;8.372;2023-07-22T00:33:08;2.57;;;2.37;;
20287;SDS011;10303;51.960;8.372;2023-07-22T00:35:34;2.27;;;2.07;;
20287;SDS011;10303;51.960;8.372;2023-07-22T00:38:00;2.13;;;1.90;;
20287;SDS011;10303;51.960;8.372;2023-07-22T00:40:27;2.40;;;2.20;;
20287;SDS011;10303;51.960;8.372;2023-07-22T00:42:57;2.87;;;2.40;;
20287;SDS011;10303;51.960;8.372;2023-07-22T00:45:24;3.23;;;2.50;;
20287;SDS011;10303;51.960;8.372;2023-07-22T00:47:50;2.70;;;2.37;;
20287;SDS011;10303;51.960;8.372;2023-07-22T00:50:17;2.70;;;2.50;;
20287;SDS011;10303;51.960;8.372;2023-07-22T00:52:43;3.30;;;2.60;;
20287;SDS011;10303;51.960;8.372;2023-07-22T00:55:09;3.00;;;2.73;;
20287;SDS011;10303;51.960;8.372;2023-07-22T00:57:36;3.73;;;2.50;;
20287;SDS011;10303;51.960;8.372;2023-07-22T01:00:03;3.13;;;2.50;;
20287;SDS011;10303;51.960;8.372;2023-07-22T01:02:31;2.87;;;2.50;;
20287;SDS011;10303;51.960;8.372;2023-07-22T01:04:57;6.70;;;2.63;;
20287;SDS011;10303;51.960;8.372;2023-07-22T01:07:23;3.80;;;2.53;;
20287;SDS011;10303;51.960;8.372;2023-07-22T01:09:50;2.67;;;2.47;;
20287;SDS011;10303;51.960;8.372;2023-07-22T01:12:23;5.03;;;2.60;;
20287;SDS011;10303;51.960;8.372;2023-07-22T01:14:50;3.50;;;2.33;;
20287;SDS011;10303;51.960;8.372;2023-07-22T01:17:17;7.10;;;2.80;;
20287;SDS011;10303;51.960;8.372;2023-07-22T01:19:44;3.30;;;2.33;;
20287;SDS011;10303;51.960;8.372;2023-07-22T01:22:11;4.83;;;2.80;;
20287;SDS011;10303;51.960;8.372;2023-07-22T01:24:39;5.10;;;2.50;;
20287;SDS011;10303;51.960;8.372;2023-07-22T01:27:08;2.73;;;2.10;;
20287;SDS011;10303;51.960;8.372;2023-07-22T01:29:37;3.00;;;2.70;;
20287;SDS011;10303;51.960;8.372;2023-07-22T01:32:03;3.00;;;2.53;;
20287;SDS011;10303;51.960;8.372;2023-07-22T01:34:30;2.17;;;1.97;;
20287;SDS011;10303;51.960;8.372;2023-07-22T01:36:57;2.90;;;2.60;;
20287;SDS011;10303;51.960;8.372;2023-07-22T01:39:23;2.40;;;2.10;;
20287;SDS011;10303;51.960;8.372;2023-07-22T01:41:49;2.30;;;1.97;;
20287;SDS011;10303;51.960;8.372;2023-07-22T01:44:16;2.17;;;1.97;;
20287;SDS011;10303;51.960;8.372;2023-07-22T01:46:42;2.20;;;2.00;;
20287;SDS011;10303;51.960;8.372;2023-07-22T01:49:10;2.80;;;2.30;;
20287;SDS011;10303;51.960;8.372;2023-07-22T01:51:38;2.50;;;2.30;;
20287;SDS011;10303;51.960;8.372;2023-07-22T01:54:07;2.13;;;1.83;;
20287;SDS011;10303;51.960;8.372;2023-07-22T01:56:35;3.03;;;2.30;;
20287;SDS011;10303;51.960;8.372;2023-07-22T01:59:02;2.00;;;1.70;;
20287;SDS011;10303;51.960;8.372;2023-07-22T02:01:28;1.60;;;1.50;;
20287;SDS011;10303;51.960;8.372;2023-07-22T02:03:56;1.63;;;1.53;;
20287;SDS011;10303;51.960;8.372;2023-07-22T02:06:22;1.73;;;1.63;;
20287;SDS011;10303;51.960;8.372;2023-07-22T02:08:48;2.43;;;2.03;;
20287;SDS011;10303;51.960;8.372;2023-07-22T02:11:15;3.37;;;2.37;;
20287;SDS011;10303;51.960;8.372;2023-07-22T02:13:42;2.10;;;1.70;;
20287;SDS011;10303;51.960;8.372;2023-07-22T02:16:08;2.23;;;2.00;;
20287;SDS011;10303;51.960;8.372;2023-07-22T02:18:36;2.50;;;1.93;;
20287;SDS011;10303;51.960;8.372;2023-07-22T02:21:03;2.17;;;1.70;;
20287;SDS011;10303;51.960;8.372;2023-07-22T02:23:29;4.63;;;1.73;;
20287;SDS011;10303;51.960;8.372;2023-07-22T02:25:55;1.87;;;1.70;;
20287;SDS011;10303;51.960;8.372;2023-07-22T02:28:21;2.50;;;1.97;;
20287;SDS011;10303;51.960;8.372;2023-07-22T02:30:49;2.50;;;2.07;;
20287;SDS011;10303;51.960;8.372;2023-07-22T02:33:18;2.43;;;1.77;;
20287;SDS011;10303;51.960;8.372;2023-07-22T02:35:47;2.43;;;2.00;;
20287;SDS011;10303;51.960;8.372;2023-07-22T02:38:14;4.57;;;2.07;;
20287;SDS011;10303;51.960;8.372;2023-07-22T02:40:40;2.90;;;2.50;;
20287;SDS011;10303;51.960;8.372;2023-07-22T02:43:06;2.53;;;2.17;;
20287;SDS011;10303;51.960;8.372;2023-07-22T02:45:33;2.53;;;2.23;;
20287;SDS011;10303;51.960;8.372;2023-07-22T02:47:59;2.00;;;1.70;;
20287;SDS011;10303;51.960;8.372;2023-07-22T02:50:26;4.30;;;1.67;;
20287;SDS011;10303;51.960;8.372;2023-07-22T02:52:52;1.97;;;1.67;;
20287;SDS011;10303;51.960;8.372;2023-07-22T02:55:18;2.37;;;2.17;;
20287;SDS011;10303;51.960;8.372;2023-07-22T02:57:45;3.30;;;2.70;;
20287;SDS011;10303;51.960;8.372;2023-07-22T03:00:13;2.27;;;1.90;;
20287;SDS011;10303;51.960;8.372;2023-07-22T03:02:52;2.03;;;1.80;;
20287;SDS011;10303;51.960;8.372;2023-07-22T03:05:26;2.50;;;2.30;;
20287;SDS011;10303;51.960;8.372;2023-07-22T03:07:54;2.30;;;1.63;;
20287;SDS011;10303;51.960;8.372;2023-07-22T03:10:20;2.93;;;1.97;;
20287;SDS011;10303;51.960;8.372;2023-07-22T03:12:46;2.23;;;1.80;;
20287;SDS011;10303;51.960;8.372;2023-07-22T03:15:13;1.83;;;1.27;;
20287;SDS011;10303;51.960;8.372;2023-07-22T03:17:39;1.77;;;1.67;;
20287;SDS011;10303;51.960;8.372;2023-07-22T03:20:08;2.47;;;2.10;;
20287;SDS011;10303;51.960;8.372;2023-07-22T03:22:45;2.57;;;1.90;;
20287;SDS011;10303;51.960;8.372;2023-07-22T03:25:12;2.37;;;1.90;;
20287;SDS011;10303;51.960;8.372;2023-07-22T03:27:42;3.67;;;2.10;;
20287;SDS011;10303;51.960;8.372;2023-07-22T03:30:12;1.83;;;1.73;;
20287;SDS011;10303;51.960;8.372;2023-07-22T03:32:41;1.90;;;1.70;;
20287;SDS011;10303;51.960;8.372;2023-07-22T03:35:09;2.00;;;1.80;;
20287;SDS011;10303;51.960;8.372;2023-07-22T03:37:36;2.43;;;1.87;;
20287;SDS011;10303;51.960;8.372;2023-07-22T03:40:11;2.20;;;2.00;;
20287;SDS011;10303;51.960;8.372;2023-07-22T03:42:52;2.03;;;1.77;;
20287;SDS011;10303;51.960;8.372;2023-07-22T03:45:20;1.50;;;1.40;;
20287;SDS011;10303;51.960;8.372;2023-07-22T03:47:52;1.57;;;1.40;;
20287;SDS011;10303;51.960;8.372;2023-07-22T03:50:24;2.73;;;2.20;;
20287;SDS011;10303;51.960;8.372;2023-07-22T03:52:51;1.97;;;1.87;;
20287;SDS011;10303;51.960;8.372;2023-07-22T03:55:17;2.70;;;1.80;;
20287;SDS011;10303;51.960;8.372;2023-07-22T03:57:45;1.67;;;1.37;;
20287;SDS011;10303;51.960;8.372;2023-07-22T04:00:11;3.63;;;2.43;;
20287;SDS011;10303;51.960;8.372;2023-07-22T04:02:38;10.60;;;2.40;;
20287;SDS011;10303;51.960;8.372;2023-07-22T04:05:04;1.80;;;1.63;;
20287;SDS011;10303;51.960;8.372;2023-07-22T04:07:30;5.23;;;2.13;;
20287;SDS011;10303;51.960;8.372;2023-07-22T04:09:57;2.30;;;2.10;;
20287;SDS011;10303;51.960;8.372;2023-07-22T04:12:23;2.77;;;2.23;;
20287;SDS011;10303;51.960;8.372;2023-07-22T04:14:49;2.27;;;1.73;;
20287;SDS011;10303;51.960;8.372;2023-07-22T04:17:15;2.47;;;1.77;;
20287;SDS011;10303;51.960;8.372;2023-07-22T04:19:41;3.27;;;1.97;;
20287;SDS011;10303;51.960;8.372;2023-07-22T04:22:12;3.43;;;3.13;;
20287;SDS011;10303;51.960;8.372;2023-07-22T04:24:39;1.83;;;1.73;;
20287;SDS011;10303;51.960;8.372;2023-07-22T04:27:05;3.17;;;2.57;;
20287;SDS011;10303;51.960;8.372;2023-07-22T04:29:33;3.00;;;2.43;;
20287;SDS011;10303;51.960;8.372;2023-07-22T04:32:05;2.97;;;2.57;;
20287;SDS011;10303;51.960;8.372;2023-07-22T04:34:33;5.93;;;2.00;;
20287;SDS011;10303;51.960;8.372;2023-07-22T04:37:04;2.43;;;2.23;;
20287;SDS011;10303;51.960;8.372;2023-07-22T04:39:30;3.10;;;2.60;;
20287;SDS011;10303;51.960;8.372;2023-07-22T04:41:56;3.00;;;2.73;;
20287;SDS011;10303;51.960;8.372;2023-07-22T04:44:22;4.07;;;2.40;;
20287;SDS011;10303;51.960;8.372;2023-07-22T04:46:49;3.00;;;2.50;;
20287;SDS011;10303;51.960;8.372;2023-07-22T04:49:17;3.17;;;2.50;;
20287;SDS011;10303;51.960;8.372;2023-07-22T04:51:47;2.70;;;2.50;;
20287;SDS011;10303;51.960;8.372;2023-07-22T04:54:13;2.37;;;2.17;;
20287;SDS011;10303;51.960;8.372;2023-07-22T04:56:40;2.97;;;2.63;;
20287;SDS011;10303;51.960;8.372;2023-07-22T04:59:07;2.57;;;2.37;;
20287;SDS011;10303;51.960;8.372;2023-07-22T05:01:34;3.40;;;2.60;;
20287;SDS011;10303;51.960;8.372;2023-07-22T05:04:00;2.60;;;2.20;;
20287;SDS011;10303;51.960;8.372;2023-07-22T05:06:28;3.27;;;2.80;;
20287;SDS011;10303;51.960;8.372;2023-07-22T05:08:54;2.57;;;2.37;;
20287;SDS011;10303;51.960;8.372;2023-07-22T05:11:20;4.67;;;3.20;;
20287;SDS011;10303;51.960;8.372;2023-07-22T05:13:48;4.03;;;2.70;;
20287;SDS011;10303;51.960;8.372;2023-07-22T05:16:14;3.33;;;2.40;;
20287;SDS011;10303;51.960;8.372;2023-07-22T05:18:40;4.03;;;2.83;;
20287;SDS011;10303;51.960;8.372;2023-07-22T05:21:06;3.47;;;2.80;;
20287;SDS011;10303;51.960;8.372;2023-07-22T05:23:32;3.70;;;2.90;;
20287;SDS011;10303;51.960;8.372;2023-07-22T05:25:59;5.33;;;3.47;;
20287;SDS011;10303;51.960;8.372;2023-07-22T05:28:24;6.10;;;2.87;;
20287;SDS011;10303;51.960;8.372;2023-07-22T05:30:50;4.80;;;3.13;;
20287;SDS011;10303;51.960;8.372;2023-07-22T05:33:16;3.77;;;2.80;;
20287;SDS011;10303;51.960;8.372;2023-07-22T05:35:42;2.97;;;2.77;;
20287;SDS011;10303;51.960;8.372;2023-07-22T05:38:08;2.93;;;2.47;;
20287;SDS011;10303;51.960;8.372;2023-07-22T05:40:34;4.23;;;3.00;;
20287;SDS011;10303;51.960;8.372;2023-07-22T05:43:00;3.27;;;2.93;;
20287;SDS011;10303;51.960;8.372;2023-07-22T05:45:26;3.40;;;3.00;;
20287;SDS011;10303;51.960;8.372;2023-07-22T05:47:52;3.77;;;3.07;;
20287;SDS011;10303;51.960;8.372;2023-07-22T05:50:18;3.60;;;2.80;;
20287;SDS011;10303;51.960;8.372;2023-07-22T05:52:44;6.03;;;3.40;;
20287;SDS011;10303;51.960;8.372;2023-07-22T05:55:11;6.40;;;4.07;;
20287;SDS011;10303;51.960;8.372;2023-07-22T05:57:36;4.00;;;3.33;;
20287;SDS011;10303;51.960;8.372;2023-07-22T06:00:03;6.30;;;4.53;;
20287;SDS011;10303;51.960;8.372;2023-07-22T06:02:37;7.73;;;5.60;;
20287;SDS011;10303;51.960;8.372;2023-07-22T06:05:03;9.70;;;5.80;;
20287;SDS011;10303;51.960;8.372;2023-07-22T06:07:29;8.63;;;4.83;;
20287;SDS011;10303;51.960;8.372;2023-07-22T06:09:55;7.60;;;4.83;;
20287;SDS011;10303;51.960;8.372;2023-07-22T06:12:21;6.27;;;4.47;;
20287;SDS011;10303;51.960;8.372;2023-07-22T06:14:47;6.27;;;4.47;;
20287;SDS011;10303;51.960;8.372;2023-07-22T06:17:13;12.93;;;6.37;;
20287;SDS011;10303;51.960;8.372;2023-07-22T06:19:39;8.33;;;5.37;;
20287;SDS011;10303;51.960;8.372;2023-07-22T06:22:05;5.00;;;4.40;;
20287;SDS011;10303;51.960;8.372;2023-07-22T06:24:31;5.73;;;4.53;;
20287;SDS011;10303;51.960;8.372;2023-07-22T06:26:57;6.30;;;4.30;;
20287;SDS011;10303;51.960;8.372;2023-07-22T06:29:23;7.80;;;5.67;;
20287;SDS011;10303;51.960;8.372;2023-07-22T06:31:49;7.00;;;4.03;;
20287;SDS011;10303;51.960;8.372;2023-07-22T06:34:15;6.43;;;5.00;;
20287;SDS011;10303;51.960;8.372;2023-07-22T06:36:41;6.30;;;4.80;;
20287;SDS011;10303;51.960;8.372;2023-07-22T06:39:07;10.93;;;5.97;;
20287;SDS011;10303;51.960;8.372;2023-07-22T06:41:33;8.07;;;5.20;;
20287;SDS011;10303;51.960;8.372;2023-07-22T06:43:59;8.57;;;4.60;;
20287;SDS011;10303;51.960;8.372;2023-07-22T06:46:25;5.30;;;4.73;;
20287;SDS011;10303;51.960;8.372;2023-07-22T06:48:51;6.33;;;4.80;;
20287;SDS011;10303;51.960;8.372;2023-07-22T06:51:17;8.27;;;4.73;;
20287;SDS011;10303;51.960;8.372;2023-07-22T06:53:43;4.67;;;4.07;;
20287;SDS011;10303;51.960;8.372;2023-07-22T06:56:09;4.83;;;3.90;;
20287;SDS011;10303;51.960;8.372;2023-07-22T06:58:34;6.50;;;4.63;;
20287;SDS011;10303;51.960;8.372;2023-07-22T07:01:00;6.40;;;3.70;;
20287;SDS011;10303;51.960;8.372;2023-07-22T07:03:26;7.37;;;4.03;;
20287;SDS011;10303;51.960;8.372;2023-07-22T07:05:53;5.80;;;4.13;;
20287;SDS011;10303;51.960;8.372;2023-07-22T07:08:23;5.23;;;4.53;;
20287;SDS011;10303;51.960;8.372;2023-07-22T07:10:49;7.17;;;4.67;;
20287;SDS011;10303;51.960;8.372;2023-07-22T07:13:16;7.17;;;4.53;;
20287;SDS011;10303;51.960;8.372;2023-07-22T07:15:45;6.07;;;5.07;;
20287;SDS011;10303;51.960;8.372;2023-07-22T07:18:14;5.00;;;4.53;;
20287;SDS011;10303;51.960;8.372;2023-07-22T07:20:40;7.77;;;5.07;;
20287;SDS011;10303;51.960;8.372;2023-07-22T07:23:06;8.90;;;5.47;;
20287;SDS011;10303;51.960;8.372;2023-07-22T07:25:32;4.83;;;4.23;;
20287;SDS011;10303;51.960;8.372;2023-07-22T07:27:58;5.93;;;4.83;;
20287;SDS011;10303;51.960;8.372;2023-07-22T07:30:24;6.83;;;4.93;;
20287;SDS011;10303;51.960;8.372;2023-07-22T07:32:50;6.60;;;4.57;;
20287;SDS011;10303;51.960;8.372;2023-07-22T07:35:15;5.13;;;3.73;;
20287;SDS011;10303;51.960;8.372;2023-07-22T07:37:41;6.57;;;4.73;;
20287;SDS011;10303;51.960;8.372;2023-07-22T07:40:07;5.37;;;4.27;;
20287;SDS011;10303;51.960;8.372;2023-07-22T07:42:34;8.03;;;5.77;;
20287;SDS011;10303;51.960;8.372;2023-07-22T07:45:00;5.77;;;4.53;;
20287;SDS011;10303;51.960;8.372;2023-07-22T07:47:26;9.03;;;5.03;;
20287;SDS011;10303;51.960;8.372;2023-07-22T07:49:52;6.60;;;4.93;;
20287;SDS011;10303;51.960;8.372;2023-07-22T07:52:18;7.83;;;5.30;;
20287;SDS011;10303;51.960;8.372;2023-07-22T07:54:44;7.37;;;4.67;;
20287;SDS011;10303;51.960;8.372;2023-07-22T07:57:10;6.50;;;4.60;;
20287;SDS011;10303;51.960;8.372;2023-07-22T07:59:36;7.47;;;4.93;;
20287;SDS011;10303;51.960;8.372;2023-07-22T08:02:02;4.30;;;3.60;;
20287;SDS011;10303;51.960;8.372;2023-07-22T08:04:34;5.67;;;4.73;;
20287;SDS011;10303;51.960;8.372;2023-07-22T08:07:00;6.90;;;5.20;;
20287;SDS011;10303;51.960;8.372;2023-07-22T08:09:26;10.17;;;5.57;;
20287;SDS011;10303;51.960;8.372;2023-07-22T08:11:52;7.97;;;5.60;;
20287;SDS011;10303;51.960;8.372;2023-07-22T08:14:19;7.23;;;4.80;;
20287;SDS011;10303;51.960;8.372;2023-07-22T08:16:44;7.20;;;5.13;;
20287;SDS011;10303;51.960;8.372;2023-07-22T08:19:10;8.20;;;4.70;;
20287;SDS011;10303;51.960;8.372;2023-07-22T08:21:36;6.80;;;5.43;;
20287;SDS011;10303;51.960;8.372;2023-07-22T08:24:03;7.00;;;5.07;;
20287;SDS011;10303;51.960;8.372;2023-07-22T08:26:30;5.90;;;4.80;;
20287;SDS011;10303;51.960;8.372;2023-07-22T08:28:56;7.77;;;5.07;;
20287;SDS011;10303;51.960;8.372;2023-07-22T08:31:23;8.20;;;5.18;;
20287;SDS011;10303;51.960;8.372;2023-07-22T08:33:49;8.63;;;5.00;;
20287;SDS011;10303;51.960;8.372;2023-07-22T08:36:15;8.27;;;5.77;;
20287;SDS011;10303;51.960;8.372;2023-07-22T08:38:41;8.07;;;5.57;;
20287;SDS011;10303;51.960;8.372;2023-07-22T08:41:09;6.60;;;5.28;;
20287;SDS011;10303;51.960;8.372;2023-07-22T08:43:40;7.43;;;5.43;;
20287;SDS011;10303;51.960;8.372;2023-07-22T08:46:07;9.25;;;6.10;;
20287;SDS011;10303;51.960;8.372;2023-07-22T08:48:35;9.48;;;5.55;;
20287;SDS011;10303;51.960;8.372;2023-07-22T08:51:12;6.38;;;5.00;;
20287;SDS011;10303;51.960;8.372;2023-07-22T08:53:43;7.63;;;5.72;;
20287;SDS011;10303;51.960;8.372;2023-07-22T08:56:10;8.27;;;5.65;;
20287;SDS011;10303;51.960;8.372;2023-07-22T08:58:37;9.63;;;6.15;;
20287;SDS011;10303;51.960;8.372;2023-07-22T09:01:04;8.40;;;5.35;;
20287;SDS011;10303;51.960;8.372;2023-07-22T09:03:31;6.53;;;5.32;;
20287;SDS011;10303;51.960;8.372;2023-07-22T09:05:57;10.13;;;6.82;;
20287;SDS011;10303;51.960;8.372;2023-07-22T09:08:24;9.00;;;5.55;;
20287;SDS011;10303;51.960;8.372;2023-07-22T09:10:51;8.90;;;5.68;;
20287;SDS011;10303;51.960;8.372;2023-07-22T09:13:18;9.32;;;5.90;;
20287;SDS011;10303;51.960;8.372;2023-07-22T09:15:45;9.93;;;5.25;;
20287;SDS011;10303;51.960;8.372;2023-07-22T09:18:13;9.05;;;5.28;;
20287;SDS011;10303;51.960;8.372;2023-07-22T09:20:41;8.98;;;5.38;;
20287;SDS011;10303;51.960;8.372;2023-07-22T09:23:07;6.53;;;5.65;;
20287;SDS011;10303;51.960;8.372;2023-07-22T09:25:33;6.35;;;5.15;;
20287;SDS011;10303;51.960;8.372;2023-07-22T09:28:00;8.68;;;5.30;;
20287;SDS011;10303;51.960;8.372;2023-07-22T09:30:27;5.47;;;4.63;;
20287;SDS011;10303;51.960;8.372;2023-07-22T09:33:00;6.95;;;5.00;;
20287;SDS011;10303;51.960;8.372;2023-07-22T09:35:30;6.28;;;5.05;;
20287;SDS011;10303;51.960;8.372;2023-07-22T09:38:05;5.05;;;3.90;;
20287;SDS011;10303;51.960;8.372;2023-07-22T09:40:32;5.07;;;4.13;;
20287;SDS011;10303;51.960;8.372;2023-07-22T09:43:00;7.93;;;5.13;;
20287;SDS011;10303;51.960;8.372;2023-07-22T09:45:28;7.50;;;4.30;;
20287;SDS011;10303;51.960;8.372;2023-07-22T09:47:57;4.38;;;3.97;;
20287;SDS011;10303;51.960;8.372;2023-07-22T09:50:25;5.13;;;3.42;;
20287;SDS011;10303;51.960;8.372;2023-07-22T09:52:53;6.47;;;4.13;;
20287;SDS011;10303;51.960;8.372;2023-07-22T09:55:24;4.30;;;4.00;;
20287;SDS011;10303;51.960;8.372;2023-07-22T09:57:56;5.00;;;4.50;;
20287;SDS011;10303;51.960;8.372;2023-07-22T10:00:28;4.28;;;3.58;;
20287;SDS011;10303;51.960;8.372;2023-07-22T10:02:58;4.40;;;4.00;;
20287;SDS011;10303;51.960;8.372;2023-07-22T10:05:26;5.10;;;4.57;;
20287;SDS011;10303;51.960;8.372;2023-07-22T10:07:55;4.55;;;4.13;;
20287;SDS011;10303;51.960;8.372;2023-07-22T10:12:57;3.90;;;3.53;;
20287;SDS011;10303;51.960;8.372;2023-07-22T10:15:25;6.07;;;4.95;;
20287;SDS011;10303;51.960;8.372;2023-07-22T10:17:55;5.63;;;4.68;;
20287;SDS011;10303;51.960;8.372;2023-07-22T10:20:22;5.35;;;4.40;;
20287;SDS011;10303;51.960;8.372;2023-07-22T10:22:49;5.18;;;4.47;;
20287;SDS011;10303;51.960;8.372;2023-07-22T10:25:17;4.45;;;4.05;;
20287;SDS011;10303;51.960;8.372;2023-07-22T10:27:45;5.20;;;4.65;;
20287;SDS011;10303;51.960;8.372;2023-07-22T10:30:16;5.45;;;4.10;;
20287;SDS011;10303;51.960;8.372;2023-07-22T10:32:50;3.78;;;3.28;;
20287;SDS011;10303;51.960;8.372;2023-07-22T10:38:12;9.30;;;4.03;;
20287;SDS011;10303;51.960;8.372;2023-07-22T10:40:46;4.53;;;4.00;;
20287;SDS011;10303;51.960;8.372;2023-07-22T10:43:17;3.47;;;3.17;;
20287;SDS011;10303;51.960;8.372;2023-07-22T10:46:11;4.38;;;3.97;;
20287;SDS011;10303;51.960;8.372;2023-07-22T10:48:41;8.65;;;3.92;;
20287;SDS011;10303;51.960;8.372;2023-07-22T10:51:10;4.65;;;3.72;;
20287;SDS011;10303;51.960;8.372;2023-07-22T10:53:40;4.53;;;4.07;;
20287;SDS011;10303;51.960;8.372;2023-07-22T10:56:13;3.78;;;3.47;;
20287;SDS011;10303;51.960;8.372;2023-07-22T11:04:07;3.55;;;2.67;;
20287;SDS011;10303;51.960;8.372;2023-07-22T11:11:56;5.50;;;3.72;;
20287;SDS011;10303;51.960;8.372;2023-07-22T11:14:27;4.22;;;3.40;;
20287;SDS011;10303;51.960;8.372;2023-07-22T11:16:58;3.83;;;3.50;;
20287;SDS011;10303;51.960;8.372;2023-07-22T11:19:29;4.70;;;4.00;;
20287;SDS011;10303;51.960;8.372;2023-07-22T11:21:56;4.55;;;3.53;;
20287;SDS011;10303;51.960;8.372;2023-07-22T11:24:23;3.60;;;2.38;;
20287;SDS011;10303;51.960;8.372;2023-07-22T11:26:51;3.88;;;3.53;;
20287;SDS011;10303;51.960;8.372;2023-07-22T11:29:18;3.15;;;2.88;;
20287;SDS011;10303;51.960;8.372;2023-07-22T11:31:46;3.38;;;2.95;;
20287;SDS011;10303;51.960;8.372;2023-07-22T11:34:20;3.38;;;3.08;;
20287;SDS011;10303;51.960;8.372;2023-07-22T11:36:49;5.07;;;3.72;;
20287;SDS011;10303;51.960;8.372;2023-07-22T11:39:18;2.97;;;2.70;;
20287;SDS011;10303;51.960;8.372;2023-07-22T11:41:47;3.00;;;2.70;;
20287;SDS011;10303;51.960;8.372;2023-07-22T11:44:15;4.57;;;3.03;;
20287;SDS011;10303;51.960;8.372;2023-07-22T11:54:39;4.80;;;3.03;;
20287;SDS011;10303;51.960;8.372;2023-07-22T11:59:39;3.10;;;2.83;;
20287;SDS011;10303;51.960;8.372;2023-07-22T12:02:14;2.78;;;2.58;;
20287;SDS011;10303;51.960;8.372;2023-07-22T12:05:00;3.83;;;2.88;;
20287;SDS011;10303;51.960;8.372;2023-07-22T12:07:31;2.97;;;2.67;;
20287;SDS011;10303;51.960;8.372;2023-07-22T12:10:00;4.05;;;3.65;;
20287;SDS011;10303;51.960;8.372;2023-07-22T12:15:12;2.70;;;2.50;;
20287;SDS011;10303;51.960;8.372;2023-07-22T12:20:25;2.15;;;1.77;;
20287;SDS011;10303;51.960;8.372;2023-07-22T12:22:57;3.13;;;2.70;;
20287;SDS011;10303;51.960;8.372;2023-07-22T12:25:24;3.28;;;2.75;;
20287;SDS011;10303;51.960;8.372;2023-07-22T12:27:50;2.67;;;2.35;;
20287;SDS011;10303;51.960;8.372;2023-07-22T12:30:16;3.90;;;2.70;;
20287;SDS011;10303;51.960;8.372;2023-07-22T12:32:43;2.50;;;2.30;;
20287;SDS011;10303;51.960;8.372;2023-07-22T12:35:09;3.45;;;2.58;;
20287;SDS011;10303;51.960;8.372;2023-07-22T12:37:39;7.95;;;2.47;;
20287;SDS011;10303;51.960;8.372;2023-07-22T12:40:05;2.65;;;2.22;;
20287;SDS011;10303;51.960;8.372;2023-07-22T12:42:34;2.95;;;2.25;;
20287;SDS011;10303;51.960;8.372;2023-07-22T12:45:01;3.58;;;3.28;;
20287;SDS011;10303;51.960;8.372;2023-07-22T12:47:29;3.05;;;2.75;;
20287;SDS011;10303;51.960;8.372;2023-07-22T12:49:55;4.50;;;2.80;;
20287;SDS011;10303;51.960;8.372;2023-07-22T12:52:21;2.42;;;2.22;;
20287;SDS011;10303;51.960;8.372;2023-07-22T12:54:47;2.60;;;2.33;;
20287;SDS011;10303;51.960;8.372;2023-07-22T12:57:13;5.53;;;2.55;;
20287;SDS011;10303;51.960;8.372;2023-07-22T12:59:39;2.65;;;2.33;;
20287;SDS011;10303;51.960;8.372;2023-07-22T13:02:06;2.40;;;2.05;;
20287;SDS011;10303;51.960;8.372;2023-07-22T13:04:32;3.03;;;2.72;;
20287;SDS011;10303;51.960;8.372;2023-07-22T13:06:58;6.10;;;2.55;;
20287;SDS011;10303;51.960;8.372;2023-07-22T13:09:23;3.38;;;3.08;;
20287;SDS011;10303;51.960;8.372;2023-07-22T13:11:49;2.58;;;2.00;;
20287;SDS011;10303;51.960;8.372;2023-07-22T13:14:15;2.80;;;2.50;;
20287;SDS011;10303;51.960;8.372;2023-07-22T13:16:43;2.40;;;2.20;;
20287;SDS011;10303;51.960;8.372;2023-07-22T13:19:34;2.15;;;1.98;;
20287;SDS011;10303;51.960;8.372;2023-07-22T13:22:00;2.47;;;2.28;;
20287;SDS011;10303;51.960;8.372;2023-07-22T13:24:26;1.80;;;1.70;;
20287;SDS011;10303;51.960;8.372;2023-07-22T13:26:52;2.72;;;2.53;;
20287;SDS011;10303;51.960;8.372;2023-07-22T13:29:18;3.10;;;1.77;;
20287;SDS011;10303;51.960;8.372;2023-07-22T13:31:45;2.58;;;2.00;;
20287;SDS011;10303;51.960;8.372;2023-07-22T13:34:11;1.98;;;1.88;;
20287;SDS011;10303;51.960;8.372;2023-07-22T13:36:36;2.25;;;2.05;;
20287;SDS011;10303;51.960;8.372;2023-07-22T13:39:02;2.45;;;2.25;;
20287;SDS011;10303;51.960;8.372;2023-07-22T13:41:28;2.15;;;1.95;;
20287;SDS011;10303;51.960;8.372;2023-07-22T13:43:54;2.95;;;1.90;;
20287;SDS011;10303;51.960;8.372;2023-07-22T13:46:20;2.45;;;2.25;;
20287;SDS011;10303;51.960;8.372;2023-07-22T13:48:46;3.10;;;1.95;;
20287;SDS011;10303;51.960;8.372;2023-07-22T13:51:16;2.55;;;2.35;;
20287;SDS011;10303;51.960;8.372;2023-07-22T13:53:45;2.17;;;1.98;;
20287;SDS011;10303;51.960;8.372;2023-07-22T13:56:11;2.95;;;1.45;;
20287;SDS011;10303;51.960;8.372;2023-07-22T13:58:37;2.35;;;2.15;;
20287;SDS011;10303;51.960;8.372;2023-07-22T14:01:03;2.83;;;2.40;;
20287;SDS011;10303;51.960;8.372;2023-07-22T14:03:29;2.13;;;1.92;;
20287;SDS011;10303;51.960;8.372;2023-07-22T14:05:55;3.63;;;2.13;;
20287;SDS011;10303;51.960;8.372;2023-07-22T14:08:21;2.03;;;1.92;;
20287;SDS011;10303;51.960;8.372;2023-07-22T14:10:47;1.77;;;1.67;;
20287;SDS011;10303;51.960;8.372;2023-07-22T14:13:13;1.80;;;1.60;;
20287;SDS011;10303;51.960;8.372;2023-07-22T14:15:39;2.40;;;2.00;;
20287;SDS011;10303;51.960;8.372;2023-07-22T14:18:06;1.92;;;1.83;;
20287;SDS011;10303;51.960;8.372;2023-07-22T14:20:33;1.40;;;1.30;;
20287;SDS011;10303;51.960;8.372;2023-07-22T14:22:59;3.63;;;1.75;;
20287;SDS011;10303;51.960;8.372;2023-07-22T14:25:25;1.70;;;1.60;;
20287;SDS011;10303;51.960;8.372;2023-07-22T14:27:50;3.25;;;1.65;;
20287;SDS011;10303;51.960;8.372;2023-07-22T14:30:16;1.25;;;1.15;;
20287;SDS011;10303;51.960;8.372;2023-07-22T14:32:42;1.77;;;1.50;;
20287;SDS011;10303;51.960;8.372;2023-07-22T14:35:08;1.73;;;1.63;;
20287;SDS011;10303;51.960;8.372;2023-07-22T14:37:35;1.63;;;1.52;;
20287;SDS011;10303;51.960;8.372;2023-07-22T14:40:03;1.35;;;1.25;;
20287;SDS011;10303;51.960;8.372;2023-07-22T14:42:30;1.92;;;1.40;;
20287;SDS011;10303;51.960;8.372;2023-07-22T14:44:56;1.63;;;1.52;;
20287;SDS011;10303;51.960;8.372;2023-07-22T14:47:23;2.53;;;1.38;;
20287;SDS011;10303;51.960;8.372;2023-07-22T14:49:49;1.40;;;1.23;;
20287;SDS011;10303;51.960;8.372;2023-07-22T14:52:15;1.55;;;1.45;;
20287;SDS011;10303;51.960;8.372;2023-07-22T14:54:41;1.55;;;1.45;;
20287;SDS011;10303;51.960;8.372;2023-07-22T14:57:07;1.55;;;1.45;;
20287;SDS011;10303;51.960;8.372;2023-07-22T14:59:33;1.40;;;1.23;;
20287;SDS011;10303;51.960;8.372;2023-07-22T15:01:59;1.90;;;1.48;;
20287;SDS011;10303;51.960;8.372;2023-07-22T15:04:25;1.20;;;1.10;;
20287;SDS011;10303;51.960;8.372;2023-07-22T15:06:51;1.38;;;1.27;;
20287;SDS011;10303;51.960;8.372;2023-07-22T15:09:17;1.45;;;1.10;;
20287;SDS011;10303;51.960;8.372;2023-07-22T15:11:43;1.58;;;1.35;;
20287;SDS011;10303;51.960;8.372;2023-07-22T15:14:09;1.38;;;1.27;;
20287;SDS011;10303;51.960;8.372;2023-07-22T15:16:36;1.58;;;1.48;;
20287;SDS011;10303;51.960;8.372;2023-07-22T15:19:02;1.67;;;1.58;;
20287;SDS011;10303;51.960;8.372;2023-07-22T15:21:28;3.60;;;1.42;;
20287;SDS011;10303;51.960;8.372;2023-07-22T15:23:54;1.50;;;1.40;;